ADDS METAR Data INFO
IDs: Format: Raw Decoded Include TAF

Data at: 1951 UTC 14 Aug 2018

KIRK 141855Z AUTO 15003KT 7SM -RA FEW008 SCT100 OVC120 23/22 A2997 RMK AO2 SLP145 P0005 T02330217
KIRK 141843Z AUTO 14004KT 6SM -RA BR FEW009 BKN100 OVC120 23/22 A2997 RMK AO2 P0004 T02330217
KIRK 141755Z AUTO 19005KT 5SM -RA BR BKN100 OVC110 23/22 A2999 RMK AO2 RAB25 SLP151 P0002 60002 T02330222 10267 20194 50004
KIRK 141724Z AUTO 20008KT 6SM BR SCT022 BKN048 OVC100 24/22 A2999 RMK AO2 T02390217
KIRK 141712Z AUTO 19008KT 10SM BKN022 BKN048 OVC085 25/22 A2999 RMK AO2 T02500217
KIRK 141655Z AUTO 20009KT 10SM FEW026 BKN075 OVC120 26/22 A2999 RMK AO2 SLP151 T02560217
KIRK 141555Z AUTO 18008KT 10SM BKN095 27/21 A2998 RMK AO2 SLP147 T02670206
KIRK 141455Z AUTO 17008KT 10SM BKN085 26/21 A2998 RMK AO2 SLP145 T02560206 50001
KIRK 141355Z AUTO 16007KT 10SM BKN085 24/20 A2998 RMK AO2 SLP148 T02440200
KIRK 141255Z AUTO 11004KT 8SM CLR 22/19 A2998 RMK AO2 SLP146 T02170189
KIRK 141155Z AUTO 13004KT 7SM CLR 19/18 A2997 RMK AO2 SLP145 T01940178 10217 20172 56004
KIRK 141055Z AUTO 00000KT 7SM CLR 18/16 A2998 RMK AO2 SLP146 T01780161
KIRK 140955Z AUTO 13003KT 9SM CLR 19/17 A2998 RMK AO2 SLP144 T01890172
KIRK 140855Z AUTO 16004KT 9SM CLR 19/17 A2999 RMK AO2 SLP148 T01890172 56006
KIRK 140755Z AUTO 15004KT 10SM CLR 19/17 A2999 RMK AO2 SLP150 T01940172
KIRK 140655Z AUTO 15004KT 10SM CLR 20/17 A2999 RMK AO2 SLP151 T02000172
KIRK 140555Z AUTO 15006KT 10SM CLR 22/17 A3000 RMK AO2 SLP154 T02170172 10306 20217 403440172 56002
KIRK 140455Z AUTO 12006KT 10SM CLR 23/17 A3000 RMK AO2 SLP154 T02280167
KIRK 140355Z AUTO 12006KT 10SM CLR 23/17 A3000 RMK AO2 SLP154 T02330167
KIRK 140255Z AUTO 11006KT 10SM CLR 24/17 A3001 RMK AO2 SLP157 T02440167 53006
KIRK 140155Z AUTO 11005KT 10SM CLR 26/17 A3000 RMK AO2 SLP153 T02610167
KIRK 140055Z AUTO 11005KT 10SM CLR 28/18 A2999 RMK AO2 SLP153 T02780178
KIRK 132355Z AUTO 11005KT 10SM BKN070 BKN080 31/18 A2999 RMK AO2 SLP150 T03110178 10344 20311 56006
KIRK 132255Z AUTO 16008KT 10SM CLR 33/17 A2999 RMK AO2 SLP151 T03280167
KIRK 132155Z AUTO 13009KT 10SM SCT075 33/16 A2999 RMK AO2 SLP150 T03330161
KIRK 132055Z AUTO 15009G16KT 10SM CLR 34/16 A3001 RMK AO2 SLP156 T03440161 56020
KIRK 131955Z AUTO VRB06KT 10SM BKN070 34/16 A3003 RMK AO2 SLP162 T03390156
KIRK 131855Z AUTO 12005KT 10SM FEW070 33/17 A3005 RMK AO2 SLP170 T03280167
KIRK 131755Z AUTO 15004KT 10SM SCT060 32/18 A3007 RMK AO2 SLP177 T03220178 10328 20189 58011
KIRK 131655Z AUTO VRB05KT 10SM CLR 32/19 A3009 RMK AO2 SLP182 T03170194
KIRK 131555Z AUTO 14009KT 10SM CLR 30/21 A3010 RMK AO2 SLP186 T03000206
KIRK 131455Z AUTO VRB05KT 10SM CLR 27/20 A3011 RMK AO2 SLP189 T02670200 58004
KIRK 131355Z AUTO 14006KT 10SM CLR 24/20 A3012 RMK AO2 SLP194 T02390200
KIRK 131255Z AUTO 00000KT 7SM CLR 21/19 A3012 RMK AO2 SLP195 T02110194
KIRK 131155Z AUTO 12003KT 5SM BR CLR 19/18 A3012 RMK AO2 SLP194 T01890183 10206 20172 53002
KIRK 131055Z AUTO 11003KT 5SM BR CLR 17/17 A3011 RMK AO2 SLP191 T01720172
KIRK 130955Z AUTO 14004KT 8SM CLR 19/18 A3011 RMK AO2 SLP191 T01890183
KIRK 130855Z AUTO 14004KT 9SM CLR 19/18 A3011 RMK AO2 SLP191 T01890178 55004
KIRK 130755Z AUTO 15003KT 9SM CLR 19/18 A3011 RMK AO2 SLP190 T01940183